TimePDT,TemperatureF,Dew PointF,Humidity,Sea Level PressureIn,VisibilityMPH,Wind Direction,Wind SpeedMPH,Gust SpeedMPH,PrecipitationIn,Events,Conditions,WindDirDegrees,DateUTC
12:53 AM,55.9,45.0,67,30.25,10.0,NW,3.5,-,N/A,,Scattered Clouds,310,2013-06-01 07:53:00
1:53 AM,55.9,46.0,69,30.25,10.0,Calm,Calm,-,N/A,,Clear,0,2013-06-01 08:53:00
2:53 AM,57.0,45.0,64,30.25,10.0,North,3.5,-,N/A,,Mostly Cloudy,360,2013-06-01 09:53:00
3:53 AM,55.9,44.1,64,30.23,10.0,Calm,Calm,-,N/A,,Overcast,0,2013-06-01 10:53:00
4:53 AM,55.9,46.0,69,30.22,10.0,Calm,Calm,-,N/A,,Overcast,0,2013-06-01 11:53:00
5:53 AM,55.9,46.0,69,30.23,10.0,Calm,Calm,-,N/A,,Overcast,0,2013-06-01 12:53:00
6:53 AM,55.9,46.0,69,30.22,10.0,ESE,3.5,-,N/A,,Mostly Cloudy,110,2013-06-01 13:53:00
7:53 AM,57.0,46.0,67,30.21,10.0,SE,3.5,-,N/A,,Mostly Cloudy,130,2013-06-01 14:53:00
8:53 AM,59.0,46.9,64,30.20,10.0,Calm,Calm,-,N/A,,Mostly Cloudy,0,2013-06-01 15:53:00
9:53 AM,61.0,46.9,60,30.19,10.0,Calm,Calm,-,N/A,,Mostly Cloudy,0,2013-06-01 16:53:00
10:53 AM,64.9,46.9,52,30.17,10.0,South,5.8,-,N/A,,Mostly Cloudy,190,2013-06-01 17:53:00
11:53 AM,66.0,43.0,43,30.17,10.0,Variable,3.5,-,N/A,,Mostly Cloudy,0,2013-06-01 18:53:00
12:53 PM,70.0,46.9,44,30.14,10.0,WSW,6.9,-,N/A,,Mostly Cloudy,250,2013-06-01 19:53:00
1:53 PM,70.0,44.1,39,30.14,10.0,SW,5.8,-,N/A,,Scattered Clouds,230,2013-06-01 20:53:00
2:53 PM,70.0,42.1,36,30.12,10.0,South,4.6,-,N/A,,Scattered Clouds,180,2013-06-01 21:53:00
3:53 PM,71.1,44.1,38,30.11,10.0,Variable,4.6,-,N/A,,Partly Cloudy,0,2013-06-01 22:53:00
4:53 PM,72.0,45.0,38,30.09,10.0,WNW,8.1,-,N/A,,Partly Cloudy,290,2013-06-01 23:53:00
5:53 PM,68.0,45.0,43,30.08,10.0,NW,6.9,-,N/A,,Scattered Clouds,310,2013-06-02 00:53:00
6:53 PM,66.0,46.0,48,30.07,10.0,NW,8.1,-,N/A,,Scattered Clouds,310,2013-06-02 01:53:00
7:53 PM,64.9,43.0,45,30.06,10.0,NW,6.9,-,N/A,,Clear,310,2013-06-02 02:53:00
8:53 PM,61.0,45.0,56,30.07,10.0,NW,5.8,-,N/A,,Partly Cloudy,310,2013-06-02 03:53:00
9:53 PM,62.1,43.0,50,30.08,10.0,NNW,4.6,-,N/A,,Mostly Cloudy,340,2013-06-02 04:53:00
10:53 PM,62.1,43.0,50,30.07,10.0,Variable,3.5,-,N/A,,Overcast,0,2013-06-02 05:53:00
11:53 PM,62.1,43.0,50,30.07,10.0,North,5.8,-,N/A,,Overcast,350,2013-06-02 06:53:00